Terminal Aerodrome Forecast
Issued by NWS Green Bay, WI

Home | Current Version | Previous Version | Graphics & Text | Print | Product List | Glossary On
Versions: 1 2 3 4 5 6 7 8 9 10 11 12 13 14 15 16 17 18 19 20 21 22 23
000
FTUS43 KGRB 291123
TAFGRB
TAF
KGRB 291123Z 2912/3012 13002KT 6SM BR BKN035
      TEMPO 2912/2914 4SM BR BKN025
     FM291400 14003KT P6SM SCT030
     FM291500 15004KT P6SM SCT035
     FM291600 18004KT P6SM SCT100
     FM300500 21003KT 5SM BR SCT100
     FM300600 22003KT 3SM BR BKN090=

USA.gov is the U.S. government's official web portal to all federal, state and local government web resources and services.